Grand Rapids, MI

5:23 AM EDT on May 23, 2015 (GMT -0400)
WXGR.NET | | Change Station
CLOSE
Current Station
Personal Weather Station
Location: Grand Rapids, MI
Elevation: 756 ft
Nearby Weather Stations
Active Advisory: Frost Advisory

Elev 756 ft 42.96 °N, 85.63 °W | Updated 9 seconds ago

Clear
Clear
44.6 °F
Feels Like 45 °F
N
1.3
Wind Variable Wind from SE
Gusts 1.3 mph

Today
High -- | Low -- °F
--% Chance of Precip.
Yesterday
High -- | Low -- °F
Precip. -- in
6:12 AM 9:06 PM
Waxing Crescent, 28% visible
Pressure 30.32 in
Visibility 10.0 miles
Clouds Clear
Windchill 45 °F
Dew Point 27 °F
Humidity 50%
Rainfall 0.00 in
Snow Depth Not available.
UV 0 out of 12
Pollen 9.80 out of 12
Air Quality Not available.
Flu Activity Sporadic
METAR KGRR 230853Z AUTO 16005KT 10SM CLR 05/01 A3032 RMK AO2 SLP268 T00500011 53005

More Conditions Fewer Conditions

Pressure 30.32 in
Visibility 10.0 miles
Clouds Clear
Windchill 45 °F
Dew Point 27 °F
Humidity 50%
Rainfall 0.00 in
Snow Depth Not available.
UV 0 out of 12
Pollen 9.80 out of 12
Air Quality Not available.
Flu Activity Sporadic
METAR KGRR 230853Z AUTO 16005KT 10SM CLR 05/01 A3032 RMK AO2 SLP268 T00500011 53005

More Conditions Fewer Conditions

10-Day Weather Forecast

Almanac

Astronomy

May. 23, 2015 Rise Set
Actual Time
Civil Twilight
Nautical Twilight
Astronomical Twilight
Moon
Length of Visible Light
Length of Day
Tomorrow will be .
, % of the Moon is Illuminated

Today's Extremes

State Highs State Lows

Community

WunderPhotos

Upload Photos

1,823,404 photos uploaded!

WunderBlogs® & News

Nearby

Air Quality

  Air Quality AQ Index Pollutant
Not available.

Snow Depth

Station Depth Elevation

Earthquake Activity

City Distance Mag. Time & Date
Minimum magnitude displayed is 2.5.

Coastal Water Temperatures

Place Temperature

Stations

Nearby Weather Stations

Station Location Temp. Windchill Dew Point Humidity Wind Precip. Elev Updated Type
                   
Frost Advisory
Statement as of 3:26 AM EDT on May 23, 2015

... Frost advisory remains in effect until 8 am EDT this morning...

Hazardous weather...

* areas of frost are expected overnight

* temperatures will fall into the 30s.

Impacts...

* fruit trees and other tender vegetation may be damaged if
   precautionary measures are not taken.

Precautionary/preparedness actions...

* a frost advisory is issued when frost is expected to develop
   during the growing season. Those with agricultural interests
   in the advised area are advised to harvest or protect tender
   vegetation. Also... potted plants normally left outdoors
   should be covered or brought inside away from the cold.



Ostuno